Raugust, Washington
Current Conditions -  °F | °C
As of 8:59 AM on Thursday 18 Dec 2014 (Local Time) from KMWH Reporting Station
Haze Haze  
Wind Chill: 30°   Ceiling: 400
Heat Index: 37°   Visibility: 4mi
Dew Point: 36°   Wind: 9mph
Humidity: 96%   Direction: 140°SE
Pressure: 30.02"   Gusts: NA
Location:  47.1758°N, 119.289°W
Report Text: KMWH 181659Z 14008KT 4SM BR OVC004 03/02 A3002 RMK AO2 T00280022
Loading
Personal Weather Stations






























Interactive Weather Map New forecast layout! Learn more

10-Day Weather Forecast

Advertisements
Track Severe Weather on mobile